This is the latest recevied weather packets stored in our database for station/object N7MLR. If no packets are shown the sender has not sent any weather packets the latest 10 day(s).
| Time | Temp. | Humidity | Pressure | Rain* | Wind** | Luminosity | Snow |
|---|---|---|---|---|---|---|---|
| 1778017415 | 28.89° C | 70% | 1005.9 hPa | 0 mm | - | 298 W/m² | - |
| 1778017112 | 28.89° C | 69% | 1005.7 hPa | 0 mm | - | 275 W/m² | - |
| 1778016810 | 29.44° C | 69% | 1006.1 hPa | 0 mm | - | 337 W/m² | - |
| 1778016505 | 29.44° C | 69% | 1006.2 hPa | 0 mm | - | 328 W/m² | - |
| 1778016203 | 30° C | 66% | 1006.2 hPa | 0 mm | - | 467 W/m² | - |
| 1778015898 | 30° C | 66% | 1006.2 hPa | 0 mm | - | 616 W/m² | - |
| 1778015597 | 30° C | 68% | 1006.5 hPa | 0 mm | - | 553 W/m² | - |
| 1778015293 | 30° C | 67% | 1006.2 hPa | 0 mm | - | 364 W/m² | - |
| 1778014990 | 29.44° C | 68% | 1006.4 hPa | 0 mm | - | 507 W/m² | - |
| 1778014687 | 30.56° C | 66% | 1006.4 hPa | 0 mm | - | 424 W/m² | - |
| 1778014385 | 29.44° C | 68% | 1006.7 hPa | 0 mm | - | 615 W/m² | - |
| 1778014081 | 28.89° C | 69% | 1006.7 hPa | 0 mm | - | 335 W/m² | - |
| 1778013779 | 28.89° C | 69% | 1006.7 hPa | 0 mm | - | 550 W/m² | - |
| 1778013476 | 28.33° C | 72% | 1006.8 hPa | 0 mm | - | 628 W/m² | - |
| 1778013173 | 28.33° C | 71% | 1006.9 hPa | 0 mm | - | 285 W/m² | - |
| 1778012869 | 28.89° C | 71% | 1006.9 hPa | 0 mm | - | 516 W/m² | - |
| 1778012565 | 28.33° C | 71% | 1006.9 hPa | 0 mm | - | 648 W/m² | - |
| 1778012262 | 28.33° C | 71% | 1007.2 hPa | 0 mm | - | 673 W/m² | - |
| 1778011959 | 28.33° C | 72% | 1007.2 hPa | 0 mm | - | 691 W/m² | - |
| 1778011658 | 28.33° C | 73% | 1007.3 hPa | 0 mm | - | 302 W/m² | - |
| 1778011355 | 28.33° C | 71% | 1007.3 hPa | 0 mm | - | 275 W/m² | - |
| 1778011050 | 28.33° C | 71% | 1007.5 hPa | 0 mm | - | 229 W/m² | - |
| 1778010748 | 28.33° C | 72% | 1007.4 hPa | 0 mm | - | 802 W/m² | - |
| 1778010445 | 28.33° C | 72% | 1007.6 hPa | 0 mm | - | 264 W/m² | - |
| 1778010141 | 28.89° C | 70% | 1007.5 hPa | 0 mm | - | 338 W/m² | - |
* Rain latest hour (hover to see other rain measurements)
** Current wind speed in m/s (hover to see current wind gust speed)